Terminal Aerodrome Forecast
Issued by NWS

Home | Current Version | Previous Version | Text Only | Print | Product List | Glossary On
Versions: 1 2 3 4 5 6 7 8 9 10 11 12 13 14 15 16 17 18 19 20 21 22 23 24 25 26
000
FTUS45 KFGZ 031800 AAA
TAFSEZ
TAF AMD
KSEZ 031857Z 0319/0418 VRB06KT P6SM BKN015 OVC025
      TEMPO 0319/0322 -SHRA SCT006 BKN010 OVC015
     FM032200 22012KT 3SM -SHRA BR BKN015
     FM040700 VRB03KT 5SM BR OVC015=

USA.gov is the U.S. government's official web portal to all federal, state and local government web resources and services.